Time;durP1;ratioP1;P1;durP2;ratioP2;P2;SDS_P1;SDS_P2;PMS_P1;PMS_P2;Temp;Humidity;BMP_temperature;BMP_pressure;BME280_temperature;BME280_humidity;BME280_pressure;Samples;Min_cycle;Max_cycle;Signal;HPM_P1;HPM_P2
2022/06/11 00:01:19;;;;;;;5.38;4.63;;;;;;;22.78;59.99;100688.66;5151520;27;20448;-67
2022/06/11 00:03:49;;;;;;;5.20;4.68;;;;;;;22.84;59.66;100683.06;5148159;27;20412;-68
2022/06/11 00:06:17;;;;;;;4.75;3.88;;;;;;;22.86;59.72;100693.63;5147571;27;20440;-67
2022/06/11 00:08:45;;;;;;;6.40;4.30;;;;;;;22.88;59.43;100686.09;5158130;27;20429;-67
2022/06/11 00:11:13;;;;;;;5.90;3.55;;;;;;;22.83;59.30;100688.72;5154615;27;20467;-67
2022/06/11 00:13:41;;;;;;;4.93;3.63;;;;;;;22.78;59.30;100691.34;5155100;27;20410;-67
2022/06/11 00:16:09;;;;;;;4.57;3.40;;;;;;;22.74;59.27;100684.84;5151580;27;20415;-66
2022/06/11 00:18:40;;;;;;;4.68;3.55;;;;;;;22.72;59.53;100682.38;5159992;27;20966;-69
2022/06/11 00:21:09;;;;;;;5.35;3.97;;;;;;;22.76;59.13;100674.59;5151829;27;20415;-67
2022/06/11 00:23:37;;;;;;;5.15;3.92;;;;;;;22.75;59.25;100673.78;5157313;27;20960;-67
2022/06/11 00:26:05;;;;;;;5.00;3.97;;;;;;;22.78;58.93;100670.56;5155388;27;20401;-67
2022/06/11 00:28:32;;;;;;;6.13;4.13;;;;;;;22.83;58.78;100670.63;5150118;27;20500;-67
2022/06/11 00:31:00;;;;;;;5.25;4.70;;;;;;;22.78;58.62;100669.75;5165231;27;20417;-67
2022/06/11 00:33:27;;;;;;;5.38;4.88;;;;;;;22.84;59.07;100671.44;5160815;27;20506;-67
2022/06/11 00:35:54;;;;;;;5.97;4.87;;;;;;;22.86;58.86;100666.59;5156017;27;20988;-67
2022/06/11 00:38:23;;;;;;;7.15;5.50;;;;;;;22.87;58.54;100671.75;5153385;27;20417;-67
2022/06/11 00:40:53;;;;;;;8.77;5.88;;;;;;;22.83;58.65;100664.41;5149579;27;20492;-67
2022/06/11 00:43:23;;;;;;;7.57;5.95;;;;;;;22.82;58.92;100665.47;5164033;27;21032;-67
2022/06/11 00:45:59;;;;;;;7.03;5.50;;;;;;;22.79;58.92;100668.69;5158160;27;20486;-67
2022/06/11 00:48:30;;;;;;;6.13;4.97;;;;;;;22.67;58.84;100671.50;5162396;27;20524;-67
2022/06/11 00:51:01;;;;;;;6.50;5.10;;;;;;;22.68;59.14;100662.34;5148032;27;20419;-67
2022/06/11 00:53:37;;;;;;;6.50;4.88;;;;;;;22.63;59.09;100660.38;5153545;27;20490;-67
2022/06/11 00:56:07;;;;;;;6.65;5.32;;;;;;;22.68;58.75;100656.94;5161280;27;20435;-67
2022/06/11 00:58:45;;;;;;;7.32;5.50;;;;;;;22.68;58.72;100659.63;5148115;27;20420;-66
2022/06/11 01:01:14;;;;;;;7.00;4.50;;;;;;;22.64;58.68;100663.91;5143420;27;20783;-66
2022/06/11 01:03:44;;;;;;;6.18;5.05;;;;;;;22.59;59.14;100664.66;5141604;27;20412;-69
2022/06/11 01:06:16;;;;;;;6.75;4.50;;;;;;;22.54;59.47;100667.28;5149361;27;20443;-69
2022/06/11 01:08:53;;;;;;;5.80;4.30;;;;;;;22.51;58.75;100668.63;5142032;27;20426;-67
2022/06/11 01:14:38;;;;;;;6.00;3.65;;;;;;;22.53;58.91;100674.59;5070828;27;20455;-67
2022/06/11 01:17:15;;;;;;;3.63;3.30;;;;;;;22.52;58.87;100678.34;5064586;28;20989;-67
2022/06/11 01:20:29;;;;;;;3.87;3.10;;;;;;;22.69;58.37;100678.31;5050030;28;20883;-67
2022/06/11 01:23:28;;;;;;;3.88;3.17;;;;;;;22.82;57.92;100679.00;5047332;28;20499;-67
2022/06/11 01:26:11;;;;;;;4.60;2.90;;;;;;;22.82;57.88;100679.81;5045842;28;20955;-67
2022/06/11 01:28:56;;;;;;;3.28;2.90;;;;;;;22.88;57.92;100684.19;5062523;28;20426;-67
2022/06/11 01:31:29;;;;;;;4.00;3.03;;;;;;;22.95;57.69;100696.72;5051709;28;20419;-67
2022/06/11 01:34:07;;;;;;;3.80;2.78;;;;;;;22.95;57.61;100694.00;5065917;28;20474;-67
2022/06/11 01:36:38;;;;;;;3.40;2.70;;;;;;;22.91;57.16;100696.41;5061580;28;20454;-67
2022/06/11 01:39:10;;;;;;;4.93;3.13;;;;;;;22.90;57.28;100698.28;5065516;28;20507;-67
2022/06/11 01:41:45;;;;;;;2.80;2.60;;;;;;;22.96;57.25;100695.63;5065576;28;20976;-67
2022/06/11 01:44:18;;;;;;;3.43;2.73;;;;;;;23.01;57.16;100698.38;5055753;28;20867;-67
2022/06/11 01:46:50;;;;;;;4.35;2.67;;;;;;;22.85;57.11;100698.22;5062309;28;20477;-67
2022/06/11 01:49:40;;;;;;;3.47;2.83;;;;;;;22.80;57.11;100703.56;5064429;28;20416;-66
2022/06/11 01:52:23;;;;;;;4.93;2.53;;;;;;;22.70;57.41;100706.94;5054858;28;20500;-67
2022/06/11 01:54:58;;;;;;;2.90;2.33;;;;;;;22.62;57.30;100695.78;5061495;28;20399;-66
2022/06/11 01:57:42;;;;;;;3.80;2.50;;;;;;;22.67;57.05;100698.53;5065281;28;20416;-66
2022/06/11 02:00:17;;;;;;;3.80;2.40;;;;;;;22.70;56.90;100688.03;5061284;28;20467;-67
2022/06/11 02:03:17;;;;;;;2.70;2.30;;;;;;;22.61;56.85;100689.53;5062321;28;20499;-66
2022/06/11 02:05:56;;;;;;;6.03;2.53;;;;;;;22.55;56.97;100693.25;5053956;28;20499;-66
2022/06/11 02:08:30;;;;;;;4.17;2.43;;;;;;;22.53;56.85;100695.41;5062901;28;20435;-66
2022/06/11 02:12:34;;;;;;;4.10;2.60;;;;;;;22.48;57.11;100692.63;5091898;27;20459;-67
2022/06/11 02:15:05;;;;;;;3.63;2.50;;;;;;;22.46;57.20;100690.16;5086130;28;20453;-66
2022/06/11 02:17:35;;;;;;;2.85;2.42;;;;;;;22.43;57.16;100695.25;5086228;28;20437;-67
2022/06/11 02:20:06;;;;;;;4.70;2.75;;;;;;;22.40;57.48;100688.47;5083243;28;20950;-67
2022/06/11 02:22:41;;;;;;;4.43;2.60;;;;;;;22.43;57.01;100690.66;5074956;28;20415;-67
2022/06/11 02:26:24;;;;;;;5.60;2.70;;;;;;;22.35;57.22;100699.22;5104983;27;20436;-67
2022/06/11 02:28:53;;;;;;;3.65;2.58;;;;;;;22.32;57.08;100697.81;5086007;28;20501;-66
2022/06/11 02:31:24;;;;;;;3.63;2.35;;;;;;;22.33;57.10;100704.03;5086129;28;20457;-67
2022/06/11 02:33:52;;;;;;;3.45;2.20;;;;;;;22.32;57.22;100705.91;5086019;28;20501;-66
2022/06/11 02:36:23;;;;;;;2.75;2.50;;;;;;;22.39;57.39;100694.94;5086482;28;20414;-66
2022/06/11 02:38:50;;;;;;;4.00;2.50;;;;;;;22.44;57.23;100700.41;5086330;28;20418;-66
2022/06/11 02:41:22;;;;;;;3.65;2.38;;;;;;;22.53;56.95;100698.09;5085265;28;20960;-67
2022/06/11 02:43:50;;;;;;;2.70;2.33;;;;;;;22.62;56.89;100709.28;5086625;28;20494;-67
2022/06/11 02:49:01;;;;;;;3.97;2.40;;;;;;;;;;5085295;28;20496;-67
2022/06/11 02:51:30;;;;;;;3.72;2.38;;;;;;;22.60;56.01;100714.94;5086197;28;20521;-67
2022/06/11 02:53:57;;;;;;;4.32;2.30;;;;;;;22.56;56.25;100718.38;5085855;28;20418;-67
2022/06/11 02:56:27;;;;;;;2.70;2.30;;;;;;;22.60;55.72;100716.81;5086324;28;20437;-67
2022/06/11 02:58:55;;;;;;;3.22;2.45;;;;;;;22.51;56.07;100722.66;5085396;28;20995;-66
2022/06/11 03:01:23;;;;;;;2.83;2.30;;;;;;;22.44;55.76;100726.59;5079814;28;20469;-69
2022/06/11 03:03:51;;;;;;;5.00;2.80;;;;;;;22.41;55.98;100729.78;5085767;28;20561;-67
2022/06/11 03:06:19;;;;;;;3.80;2.50;;;;;;;22.45;56.08;100731.75;5082402;28;20919;-67
2022/06/11 03:08:46;;;;;;;7.00;2.70;;;;;;;22.47;55.92;100732.34;5086005;28;20410;-67
2022/06/11 03:11:14;;;;;;;4.15;2.65;;;;;;;22.43;56.15;100727.66;5085545;28;20426;-66
2022/06/11 03:13:42;;;;;;;3.23;2.60;;;;;;;22.41;56.07;100719.00;5085346;28;20935;-67
2022/06/11 03:16:10;;;;;;;3.38;2.60;;;;;;;22.36;56.04;100732.41;5085368;28;20505;-67
2022/06/11 03:18:38;;;;;;;4.95;2.70;;;;;;;22.28;56.21;100729.06;5085455;28;20425;-67
2022/06/11 03:21:05;;;;;;;4.18;2.63;;;;;;;22.35;56.09;100733.50;5085452;28;20414;-67
2022/06/11 03:23:32;;;;;;;4.28;2.70;;;;;;;22.31;56.42;100738.59;5085209;28;21030;-67
2022/06/11 03:25:59;;;;;;;3.70;2.60;;;;;;;22.34;56.38;100732.66;5084947;28;20512;-67
2022/06/11 03:28:29;;;;;;;3.92;2.80;;;;;;;22.43;56.32;100738.47;5085325;28;20904;-67
2022/06/11 03:30:58;;;;;;;3.65;2.90;;;;;;;22.47;56.16;100731.50;5084690;28;20505;-67
2022/06/11 03:33:26;;;;;;;3.60;2.45;;;;;;;22.46;55.94;100729.88;5085406;28;20410;-67
2022/06/11 03:35:53;;;;;;;3.72;2.72;;;;;;;22.40;56.35;100730.84;5081457;28;20506;-67
2022/06/11 03:38:21;;;;;;;3.65;2.60;;;;;;;22.30;56.33;100726.13;5071607;28;20913;-67
2022/06/11 03:40:48;;;;;;;2.67;2.47;;;;;;;22.30;56.58;100726.94;5071668;28;20501;-67
2022/06/11 03:43:16;;;;;;;3.83;2.85;;;;;;;22.31;56.20;100717.78;5071271;28;20442;-67
2022/06/11 03:45:43;;;;;;;4.27;2.40;;;;;;;22.25;56.49;100728.72;5067422;28;20463;-66
2022/06/11 03:48:12;;;;;;;3.33;2.80;;;;;;;22.30;56.10;100732.34;5061882;28;20419;-67
2022/06/11 03:50:40;;;;;;;5.35;2.58;;;;;;;22.35;56.20;100728.09;5071296;28;20793;-67
2022/06/11 03:53:10;;;;;;;4.72;2.85;;;;;;;22.37;56.12;100732.19;5070347;28;21016;-66
2022/06/11 03:55:37;;;;;;;3.08;2.63;;;;;;;22.42;55.91;100731.41;5062827;28;20938;-67
2022/06/11 03:58:04;;;;;;;3.33;2.50;;;;;;;22.47;56.04;100737.72;5070980;28;20927;-67
2022/06/11 04:03:20;;;;;;;4.97;2.78;;;;;;;22.46;55.60;100740.69;5058998;28;20955;-67
2022/06/11 04:05:48;;;;;;;5.43;2.83;;;;;;;22.48;55.98;100743.94;5062201;28;20471;-67
2022/06/11 04:08:16;;;;;;;4.95;2.80;;;;;;;22.42;56.08;100743.06;5069337;28;20499;-67
2022/06/11 04:10:44;;;;;;;3.67;2.70;;;;;;;22.51;55.84;100748.88;5061870;28;20507;-67
2022/06/11 04:13:12;;;;;;;3.50;2.60;;;;;;;22.57;55.44;100747.03;5068671;28;20415;-68
2022/06/11 04:15:42;;;;;;;4.23;2.97;;;;;;;22.50;55.59;100753.41;5070830;28;20442;-67
2022/06/11 04:18:11;;;;;;;4.60;2.97;;;;;;;22.50;55.45;100760.72;5065849;28;20419;-68
2022/06/11 04:20:40;;;;;;;3.30;2.83;;;;;;;22.54;55.41;100756.44;5071101;28;20501;-67
2022/06/11 04:23:07;;;;;;;3.70;2.90;;;;;;;22.50;55.35;100756.13;5070239;28;20506;-67
2022/06/11 04:25:34;;;;;;;3.10;2.80;;;;;;;22.43;55.13;100752.78;5070765;28;20905;-67
2022/06/11 04:28:01;;;;;;;4.60;2.73;;;;;;;22.38;55.61;100754.59;5070335;28;20451;-67
2022/06/11 04:30:28;;;;;;;3.35;2.75;;;;;;;22.26;55.77;100755.50;5070650;28;20498;-67
2022/06/11 04:32:55;;;;;;;5.95;3.15;;;;;;;22.23;55.75;100744.34;5070624;28;21720;-67
2022/06/11 04:35:22;;;;;;;3.95;2.90;;;;;;;22.19;55.97;100738.63;5070183;28;20505;-68
2022/06/11 04:37:50;;;;;;;3.90;2.85;;;;;;;22.25;55.99;100745.72;5070117;28;20843;-68
2022/06/11 04:40:18;;;;;;;5.30;3.13;;;;;;;22.26;55.76;100743.88;5070051;28;20970;-68
2022/06/11 04:42:46;;;;;;;3.55;2.88;;;;;;;22.31;55.76;100746.69;5070125;28;20854;-68
2022/06/11 04:45:16;;;;;;;4.90;2.80;;;;;;;22.40;55.77;100755.16;5069642;28;20453;-68
2022/06/11 04:47:43;;;;;;;4.37;2.87;;;;;;;22.48;55.72;100750.16;5069421;28;20411;-67
2022/06/11 04:50:15;;;;;;;5.03;2.85;;;;;;;22.41;55.44;100751.41;5070509;28;20502;-67
2022/06/11 04:52:42;;;;;;;4.68;2.95;;;;;;;22.47;55.99;100753.94;5069708;28;20964;-67
2022/06/11 04:55:11;;;;;;;8.27;3.10;;;;;;;22.58;55.70;100760.31;5069009;28;20490;-66
2022/06/11 04:57:38;;;;;;;3.47;2.70;;;;;;;22.57;55.48;100750.56;5069822;28;20494;-66
2022/06/11 05:00:07;;;;;;;4.70;3.42;;;;;;;22.69;55.42;100758.56;5070577;28;20502;-66
2022/06/11 05:02:34;;;;;;;5.53;3.58;;;;;;;22.84;55.16;100755.22;5068711;28;20498;-66
2022/06/11 05:05:01;;;;;;;4.57;3.30;;;;;;;22.89;54.84;100758.00;5069541;28;20458;-66
2022/06/11 05:07:28;;;;;;;3.35;3.05;;;;;;;22.84;54.82;100757.94;5069863;28;20407;-67
2022/06/11 05:09:55;;;;;;;5.20;3.03;;;;;;;22.82;55.00;100757.38;5070004;28;20503;-66
2022/06/11 05:12:23;;;;;;;5.25;3.25;;;;;;;22.83;55.19;100759.00;5069828;28;20886;-66
2022/06/11 05:14:50;;;;;;;4.65;3.20;;;;;;;22.86;55.21;100767.41;5069830;28;20574;-66
2022/06/11 05:17:17;;;;;;;3.22;2.92;;;;;;;22.80;55.09;100771.13;5061049;28;20427;-67
2022/06/11 05:19:44;;;;;;;5.80;3.10;;;;;;;22.77;54.71;100768.13;5067078;28;20426;-67
2022/06/11 05:22:11;;;;;;;5.80;3.10;;;;;;;22.80;54.81;100773.03;5068123;28;21125;-67
2022/06/11 05:24:38;;;;;;;3.30;3.00;;;;;;;22.84;54.74;100772.25;5067601;28;20494;-66
2022/06/11 05:27:09;;;;;;;4.55;3.10;;;;;;;22.96;54.70;100768.63;5067624;28;20929;-68
2022/06/11 05:29:47;;;;;;;4.70;3.10;;;;;;;22.95;54.56;100767.81;5056232;28;20511;-67
2022/06/11 05:33:27;;;;;;;3.55;3.13;;;;;;;23.07;54.33;100771.25;5086332;27;20522;-68
2022/06/11 05:35:55;;;;;;;4.70;3.40;;;;;;;23.11;54.50;100771.53;5075748;28;20501;-68
2022/06/11 05:38:26;;;;;;;5.15;3.60;;;;;;;23.21;53.98;100770.84;5077169;28;20540;-68
2022/06/11 05:40:54;;;;;;;3.90;3.30;;;;;;;23.34;53.87;100773.16;5079159;28;20441;-69
2022/06/11 05:43:22;;;;;;;4.05;3.15;;;;;;;23.40;53.90;100779.44;5078944;28;20539;-68
2022/06/11 05:45:54;;;;;;;4.15;3.25;;;;;;;23.50;53.67;100779.56;5077157;28;20505;-68
2022/06/11 05:48:26;;;;;;;5.53;3.80;;;;;;;23.57;54.00;100785.59;5085661;28;20497;-68
2022/06/11 05:50:57;;;;;;;3.85;3.05;;;;;;;23.59;53.25;100780.75;5086114;28;20501;-69
2022/06/11 05:53:28;;;;;;;3.65;3.25;;;;;;;23.66;53.70;100783.25;5080320;28;20926;-68
2022/06/11 05:55:58;;;;;;;3.88;3.20;;;;;;;23.71;53.33;100788.69;5086025;28;20501;-67
2022/06/11 05:58:37;;;;;;;3.55;3.25;;;;;;;23.80;53.50;100794.50;5076706;28;20505;-67
2022/06/11 06:01:06;;;;;;;4.65;3.42;;;;;;;23.85;52.96;100795.34;5085898;28;20420;-68
2022/06/11 06:03:33;;;;;;;4.18;3.00;;;;;;;23.84;52.96;100793.72;5085857;28;20438;-68
2022/06/11 06:06:01;;;;;;;4.15;3.22;;;;;;;23.83;53.01;100800.22;5085824;28;20414;-67
2022/06/11 06:08:28;;;;;;;3.20;2.90;;;;;;;23.88;53.00;100804.88;5077734;28;20445;-67
2022/06/11 06:10:55;;;;;;;5.97;3.40;;;;;;;23.88;53.29;100806.72;5085796;28;20429;-68
2022/06/11 06:16:07;;;;;;;4.63;3.13;;;;;;;24.04;53.18;100812.03;5081610;28;20414;-67
2022/06/11 06:18:34;;;;;;;7.15;3.47;;;;;;;24.10;52.97;100810.19;5078478;28;20872;-69
2022/06/11 06:21:02;;;;;;;3.15;2.85;;;;;;;23.98;52.84;100810.34;5075197;28;20503;-67
2022/06/11 06:23:31;;;;;;;4.15;2.92;;;;;;;23.86;53.10;100801.59;5070402;28;21010;-68
2022/06/11 06:25:58;;;;;;;4.22;2.90;;;;;;;23.83;53.25;100824.56;5079198;28;20415;-68
2022/06/11 06:28:25;;;;;;;5.15;3.10;;;;;;;23.64;53.62;100824.09;5077254;28;20422;-68
2022/06/11 06:30:52;;;;;;;4.68;3.00;;;;;;;23.69;52.96;100834.13;5077885;28;21549;-68
2022/06/11 06:33:19;;;;;;;4.57;3.03;;;;;;;23.58;52.19;100825.09;5102555;28;20930;-67
2022/06/11 06:35:46;;;;;;;3.65;2.80;;;;;;;23.68;52.04;100832.53;5105616;28;20496;-68
2022/06/11 06:38:16;;;;;;;4.75;2.58;;;;;;;23.58;52.26;100827.81;5105217;28;21001;-68
2022/06/11 06:40:43;;;;;;;4.10;2.50;;;;;;;23.51;51.94;100824.47;5104260;28;20772;-67
2022/06/11 06:43:10;;;;;;;2.53;2.33;;;;;;;23.56;51.55;100827.25;5097194;28;20504;-67
2022/06/11 06:45:37;;;;;;;4.68;2.50;;;;;;;23.58;52.15;100830.50;5081899;28;20843;-68
2022/06/11 06:48:05;;;;;;;5.95;2.80;;;;;;;23.67;52.27;100831.69;5090097;28;20780;-68
2022/06/11 06:50:32;;;;;;;4.03;2.70;;;;;;;23.67;52.07;100839.81;5090941;28;20431;-68
2022/06/11 06:52:59;;;;;;;3.42;2.60;;;;;;;23.65;52.26;100835.72;5088687;28;20511;-67
2022/06/11 06:55:27;;;;;;;4.88;2.65;;;;;;;23.66;52.42;100837.38;5090970;28;20779;-68
2022/06/11 06:57:54;;;;;;;4.05;2.67;;;;;;;23.65;52.13;100833.03;5089092;28;20505;-67
2022/06/11 07:00:21;;;;;;;4.10;2.65;;;;;;;23.74;52.50;100834.19;5090434;28;20456;-68
2022/06/11 07:02:49;;;;;;;5.50;2.80;;;;;;;23.93;52.56;100834.69;5090466;28;20497;-68
2022/06/11 07:05:17;;;;;;;6.97;2.87;;;;;;;24.05;52.93;100831.81;5088652;28;20425;-67
2022/06/11 07:07:48;;;;;;;3.70;2.63;;;;;;;23.97;52.29;100829.59;5088966;28;20794;-68
2022/06/11 07:10:18;;;;;;;3.95;2.53;;;;;;;24.06;52.00;100836.16;5085369;28;20427;-68
2022/06/11 07:12:46;;;;;;;4.38;2.75;;;;;;;23.94;52.03;100828.19;5088242;28;21211;-68
2022/06/11 07:15:13;;;;;;;4.47;2.53;;;;;;;24.01;51.47;100831.50;5089394;28;20938;-67
2022/06/11 07:17:44;;;;;;;4.68;2.75;;;;;;;23.97;51.86;100829.59;5090448;28;20422;-68
2022/06/11 07:20:17;;;;;;;3.70;2.60;;;;;;;24.08;51.65;100841.34;5087815;28;20492;-67
2022/06/11 07:22:48;;;;;;;3.95;2.60;;;;;;;24.08;51.50;100839.44;5090861;28;20499;-68
2022/06/11 07:25:15;;;;;;;3.42;2.80;;;;;;;24.22;51.57;100834.41;5089672;28;20927;-68
2022/06/11 07:27:49;;;;;;;4.22;2.67;;;;;;;24.13;51.23;100847.59;5078974;28;20505;-67
2022/06/11 07:30:20;;;;;;;4.20;2.63;;;;;;;24.01;51.22;100844.25;5090522;28;20973;-68
2022/06/11 07:32:50;;;;;;;3.25;2.75;;;;;;;23.93;51.28;100834.69;5088852;28;20513;-68
2022/06/11 07:35:18;;;;;;;4.00;2.55;;;;;;;23.99;51.12;100847.19;5090244;28;20500;-67
2022/06/11 07:37:48;;;;;;;4.20;2.73;;;;;;;23.88;51.53;100850.06;5075042;28;20429;-66
2022/06/11 07:40:18;;;;;;;4.63;2.97;;;;;;;23.87;51.97;100853.84;5091024;28;20435;-67
2022/06/11 07:42:45;;;;;;;4.43;2.67;;;;;;;24.19;51.54;100859.28;5088484;28;20417;-66
2022/06/11 07:45:12;;;;;;;3.17;2.57;;;;;;;24.27;51.44;100855.28;5088905;28;20500;-67
2022/06/11 07:47:55;;;;;;;3.88;2.78;;;;;;;24.26;50.60;100867.22;5078947;28;20625;-67
2022/06/11 07:50:24;;;;;;;3.80;2.67;;;;;;;24.15;51.28;100858.19;5079867;28;20409;-67
2022/06/11 07:52:51;;;;;;;5.38;2.83;;;;;;;24.27;50.97;100868.84;5089185;28;20952;-68
2022/06/11 07:55:19;;;;;;;3.47;2.97;;;;;;;24.39;51.06;100875.72;5088262;28;20424;-68
2022/06/11 07:57:46;;;;;;;6.03;3.03;;;;;;;24.30;51.31;100881.88;5078734;28;20478;-68
2022/06/11 08:00:16;;;;;;;3.83;2.92;;;;;;;24.43;51.74;100874.16;5089179;28;20419;-67
2022/06/11 08:02:44;;;;;;;3.88;2.88;;;;;;;24.61;51.04;100872.13;5086094;28;20946;-67
2022/06/11 08:05:11;;;;;;;3.78;3.10;;;;;;;24.68;51.28;100877.31;5084272;28;20484;-68
2022/06/11 08:07:38;;;;;;;5.03;3.10;;;;;;;24.73;51.06;100882.78;5076153;28;20513;-68
2022/06/11 08:10:06;;;;;;;4.80;2.90;;;;;;;24.66;51.12;100879.47;5084955;28;20810;-68
2022/06/11 08:12:33;;;;;;;3.80;2.80;;;;;;;24.71;50.91;100874.91;5076171;28;20809;-68
2022/06/11 08:15:00;;;;;;;5.03;3.28;;;;;;;24.70;51.07;100875.97;5071447;28;20953;-67
2022/06/11 08:17:29;;;;;;;4.68;2.92;;;;;;;24.59;50.85;100885.13;5076488;28;21290;-70
2022/06/11 08:19:57;;;;;;;3.30;2.67;;;;;;;24.45;51.43;100883.88;5071904;28;20507;-70
2022/06/11 08:22:24;;;;;;;3.08;2.65;;;;;;;24.35;51.95;100882.72;5070958;28;20493;-69
2022/06/11 08:24:52;;;;;;;3.30;2.78;;;;;;;24.43;51.88;100890.41;5068294;28;20953;-68
2022/06/11 08:27:19;;;;;;;3.58;2.83;;;;;;;24.36;51.89;100889.81;5070048;28;20472;-68
2022/06/11 08:29:46;;;;;;;3.15;2.85;;;;;;;24.43;51.63;100879.56;5074623;28;20476;-69
2022/06/11 08:32:13;;;;;;;4.63;3.20;;;;;;;24.40;51.75;100887.41;5075400;28;20462;-67
2022/06/11 08:34:43;;;;;;;4.65;2.92;;;;;;;24.48;51.94;100886.91;5075682;28;20505;-68
2022/06/11 08:37:12;;;;;;;3.53;3.13;;;;;;;24.53;52.02;100886.16;5076884;28;20999;-68
2022/06/11 08:39:39;;;;;;;3.35;2.92;;;;;;;24.38;52.76;100886.81;5073261;28;20407;-67
2022/06/11 08:42:08;;;;;;;3.40;3.10;;;;;;;24.31;53.76;100891.63;5072976;28;20449;-67
2022/06/11 08:44:38;;;;;;;4.53;3.40;;;;;;;24.19;54.01;100884.47;5080191;28;20428;-69
2022/06/11 08:47:13;;;;;;;4.97;3.23;;;;;;;24.10;54.63;100887.94;5080352;28;20531;-68
2022/06/11 08:49:45;;;;;;;3.75;3.05;;;;;;;23.93;55.25;100885.31;5075558;28;20453;-67
2022/06/11 08:52:18;;;;;;;4.45;3.13;;;;;;;23.91;55.31;100882.84;5069030;28;20411;-69
2022/06/11 08:54:47;;;;;;;3.85;3.42;;;;;;;23.96;55.81;100890.22;5075600;28;20502;-69
2022/06/11 08:57:24;;;;;;;5.03;3.40;;;;;;;23.88;56.01;100893.38;5071655;28;20944;-68
2022/06/11 09:00:03;;;;;;;3.93;3.50;;;;;;;23.79;56.11;100895.72;5074625;28;20498;-67
2022/06/11 09:02:56;;;;;;;4.30;3.90;;;;;;;23.65;56.75;100896.06;5081384;28;20466;-67
2022/06/11 09:05:38;;;;;;;4.60;3.20;;;;;;;23.46;56.95;100905.56;5081283;28;20490;-66
2022/06/11 09:08:25;;;;;;;5.03;3.47;;;;;;;23.38;56.75;100906.03;5083041;28;20450;-68
2022/06/11 09:11:08;;;;;;;5.88;3.47;;;;;;;23.31;56.71;100903.50;5068617;28;20490;-68
2022/06/11 09:14:00;;;;;;;6.72;3.65;;;;;;;23.32;57.28;100907.84;5083500;28;20508;-68
2022/06/11 09:16:43;;;;;;;3.20;2.90;;;;;;;23.08;57.84;100908.06;5088185;28;20401;-67
2022/06/11 09:19:32;;;;;;;7.32;3.05;;;;;;;23.15;57.71;100907.88;5084665;28;20440;-67
2022/06/11 09:22:14;;;;;;;3.28;2.67;;;;;;;23.15;57.43;100904.38;5075437;28;20482;-68
2022/06/11 09:25:01;;;;;;;3.40;2.40;;;;;;;23.03;57.45;100901.72;5084947;28;20420;-67
2022/06/11 09:27:37;;;;;;;2.60;2.10;;;;;;;22.86;57.83;100916.09;5070945;28;20495;-68
2022/06/11 09:30:08;;;;;;;2.70;2.28;;;;;;;22.82;58.08;100912.25;5085308;28;20784;-68
2022/06/11 09:32:43;;;;;;;3.15;2.10;;;;;;;22.80;57.82;100919.78;5084979;28;20429;-67
2022/06/11 09:35:14;;;;;;;2.80;2.00;;;;;;;22.82;57.39;100914.13;5075550;28;20498;-69
2022/06/11 09:37:52;;;;;;;2.20;2.00;;;;;;;22.73;58.17;100915.63;5084907;28;20501;-69
2022/06/11 09:40:32;;;;;;;3.58;2.30;;;;;;;22.84;57.90;100922.81;5088645;28;20950;-67
2022/06/11 09:43:13;;;;;;;2.33;2.13;;;;;;;22.87;58.43;100919.63;5083487;28;20413;-69
2022/06/11 09:45:49;;;;;;;4.65;2.33;;;;;;;22.89;58.25;100920.19;5082723;28;20409;-67
2022/06/11 09:48:28;;;;;;;3.10;2.13;;;;;;;22.62;58.21;100918.16;5089525;28;20406;-67
2022/06/11 09:51:03;;;;;;;2.90;2.30;;;;;;;22.76;58.95;100923.22;5074581;28;20933;-67
2022/06/11 09:53:47;;;;;;;4.28;2.50;;;;;;;22.77;57.98;100916.75;5088961;28;20417;-67
2022/06/11 09:56:23;;;;;;;4.40;2.40;;;;;;;22.82;58.05;100924.94;5088721;28;20413;-69
2022/06/11 09:59:04;;;;;;;2.88;2.25;;;;;;;22.78;58.29;100912.97;5089333;28;20437;-67
2022/06/11 10:01:44;;;;;;;2.45;2.20;;;;;;;22.86;57.51;100921.50;5070840;28;20458;-68
2022/06/11 10:04:14;;;;;;;4.55;2.70;;;;;;;22.98;58.09;100913.31;5068764;28;20489;-68
2022/06/11 10:06:47;;;;;;;3.90;2.78;;;;;;;22.95;57.93;100913.78;5087705;28;20491;-68
2022/06/11 10:09:19;;;;;;;3.42;2.92;;;;;;;22.82;58.28;100917.66;5088882;28;20413;-67
2022/06/11 10:11:52;;;;;;;5.85;3.00;;;;;;;22.98;58.86;100913.31;5088560;28;20500;-67
2022/06/11 10:14:32;;;;;;;3.22;2.67;;;;;;;22.93;58.83;100915.09;5077329;28;20504;-67
2022/06/11 10:17:06;;;;;;;4.20;2.72;;;;;;;22.87;59.18;100914.22;5082604;28;20545;-67
2022/06/11 10:19:41;;;;;;;3.25;2.90;;;;;;;22.86;58.90;100916.09;5084195;28;20407;-68
2022/06/11 10:22:17;;;;;;;4.00;2.80;;;;;;;23.01;59.16;100912.81;5078390;28;20507;-67
2022/06/11 10:24:56;;;;;;;3.53;2.67;;;;;;;23.14;58.69;100905.41;5079527;28;20539;-68
2022/06/11 10:27:28;;;;;;;3.15;2.75;;;;;;;23.22;58.95;100905.00;5075213;28;20441;-68
2022/06/11 10:30:01;;;;;;;3.20;2.80;;;;;;;23.35;58.11;100901.91;5092336;28;20492;-67
2022/06/11 10:32:33;;;;;;;4.32;2.90;;;;;;;23.26;58.10;100903.44;5092310;28;20427;-68
2022/06/11 10:35:08;;;;;;;4.45;3.05;;;;;;;23.39;58.38;100902.25;5082480;28;20865;-67
2022/06/11 10:37:38;;;;;;;3.08;2.78;;;;;;;23.53;57.72;100905.41;5089042;28;20431;-66
2022/06/11 10:40:17;;;;;;;4.03;2.78;;;;;;;23.65;57.37;100909.59;5092176;28;20488;-68
2022/06/11 10:42:54;;;;;;;2.65;2.45;;;;;;;23.74;56.80;100901.88;5092360;28;20413;-69
2022/06/11 10:45:21;;;;;;;2.92;2.72;;;;;;;23.85;56.62;100900.13;5092184;28;20417;-67
2022/06/11 10:47:50;;;;;;;4.15;2.63;;;;;;;23.89;56.78;100900.44;5092173;28;20445;-67
2022/06/11 10:50:22;;;;;;;5.25;2.40;;;;;;;24.03;55.80;100907.06;5092437;28;20512;-68
2022/06/11 10:52:56;;;;;;;3.42;2.65;;;;;;;23.95;55.38;100902.09;5077335;28;20490;-67
2022/06/11 10:55:30;;;;;;;3.42;2.78;;;;;;;24.13;54.93;100907.19;5082282;28;20411;-68
2022/06/11 10:58:09;;;;;;;2.80;2.50;;;;;;;24.13;54.65;100906.34;5074149;28;20419;-69
2022/06/11 11:00:46;;;;;;;3.72;2.50;;;;;;;24.26;53.75;100903.25;5092097;28;20411;-67
2022/06/11 11:03:19;;;;;;;4.43;2.50;;;;;;;24.13;54.13;100898.22;5073706;28;20494;-67
2022/06/11 11:05:51;;;;;;;2.80;2.60;;;;;;;24.31;53.76;100894.34;5071508;28;20841;-68
2022/06/11 11:08:19;;;;;;;2.88;2.42;;;;;;;24.46;53.43;100891.75;5071249;28;20517;-68
2022/06/11 11:10:49;;;;;;;3.25;2.45;;;;;;;24.53;53.11;100897.00;5071524;28;20491;-68
2022/06/11 11:13:22;;;;;;;2.58;2.38;;;;;;;24.64;52.88;100897.91;5085322;28;20807;-68
2022/06/11 11:15:57;;;;;;;4.22;2.45;;;;;;;24.71;53.22;100893.88;5081166;28;20922;-67
2022/06/11 11:18:28;;;;;;;3.42;2.53;;;;;;;24.93;52.89;100899.19;5091299;28;20419;-66
2022/06/11 11:20:57;;;;;;;3.40;2.67;;;;;;;24.87;51.98;100889.38;5091843;28;20472;-68
2022/06/11 11:23:31;;;;;;;2.47;2.28;;;;;;;24.99;51.60;100883.75;5091492;28;20443;-69
2022/06/11 11:26:01;;;;;;;3.33;2.20;;;;;;;25.12;51.32;100880.59;5082119;28;20491;-67
2022/06/11 11:28:37;;;;;;;3.40;2.28;;;;;;;25.18;50.95;100874.09;5083300;28;20416;-67
2022/06/11 11:31:08;;;;;;;3.70;2.63;;;;;;;25.14;50.64;100877.63;5085617;28;20509;-67
2022/06/11 11:33:37;;;;;;;3.60;2.50;;;;;;;25.08;50.69;100876.75;5083145;28;20934;-68
2022/06/11 11:36:19;;;;;;;3.90;2.40;;;;;;;25.19;50.71;100872.19;5091095;28;20508;-67
2022/06/11 11:38:46;;;;;;;4.13;2.37;;;;;;;25.12;50.87;100872.44;5078305;28;20881;-67
2022/06/11 11:41:25;;;;;;;3.15;2.47;;;;;;;25.37;50.33;100873.66;5077093;28;20488;-67
2022/06/11 11:43:59;;;;;;;2.80;2.50;;;;;;;25.36;50.60;100875.56;5083762;28;20405;-64
2022/06/11 11:46:32;;;;;;;4.80;2.72;;;;;;;25.07;51.69;100883.28;5076579;28;20445;-68
2022/06/11 11:49:01;;;;;;;2.85;2.50;;;;;;;25.17;50.75;100877.91;5082651;28;20409;-67
2022/06/11 11:51:35;;;;;;;2.70;2.47;;;;;;;25.11;50.83;100875.41;5090632;28;20410;-67
2022/06/11 11:54:05;;;;;;;2.50;2.30;;;;;;;25.22;50.58;100874.38;5087586;28;20999;-67
2022/06/11 11:56:39;;;;;;;4.50;2.55;;;;;;;25.19;50.97;100891.19;5089684;28;20444;-68
2022/06/11 11:59:15;;;;;;;2.83;2.30;;;;;;;25.06;50.69;100891.66;5090669;28;20417;-67
2022/06/11 12:01:44;;;;;;;2.70;2.10;;;;;;;25.08;50.55;100892.22;5090997;28;20416;-67